createdAt,value
2018-08-17T00:00:39.083Z,19.82
2018-08-17T00:03:08.018Z,19.72
2018-08-17T00:05:36.867Z,19.69
2018-08-17T00:08:06.184Z,19.74
2018-08-17T00:10:35.023Z,19.73
2018-08-17T00:13:03.858Z,19.81
2018-08-17T00:15:33.068Z,19.82
2018-08-17T00:18:01.883Z,19.77
2018-08-17T00:20:33.178Z,19.81
2018-08-17T00:23:02.422Z,19.82
2018-08-17T00:25:31.651Z,19.75
2018-08-17T00:28:00.512Z,19.77
2018-08-17T00:30:29.686Z,19.78
2018-08-17T00:32:58.515Z,19.83
2018-08-17T00:35:27.374Z,19.75
2018-08-17T00:37:56.576Z,19.73
2018-08-17T00:40:25.445Z,19.78
2018-08-17T00:42:54.276Z,19.76
2018-08-17T00:45:23.717Z,19.75
2018-08-17T00:47:52.590Z,19.77
2018-08-17T00:50:21.570Z,19.82
2018-08-17T00:52:50.744Z,19.82
2018-08-17T00:55:19.605Z,19.85
2018-08-17T00:57:48.423Z,19.90
2018-08-17T01:00:18.584Z,19.89
2018-08-17T01:02:47.334Z,19.86
2018-08-17T01:05:16.241Z,19.83
2018-08-17T01:07:45.415Z,19.71
2018-08-17T01:10:14.127Z,19.66
2018-08-17T01:12:42.877Z,19.54
2018-08-17T01:15:11.970Z,19.39
2018-08-17T01:17:40.935Z,19.29
2018-08-17T01:20:11.423Z,19.25
2018-08-17T01:22:40.822Z,19.17
2018-08-17T01:25:09.591Z,19.10
2018-08-17T01:27:38.274Z,19.03
2018-08-17T01:30:09.253Z,19.00
2018-08-17T01:32:38.418Z,19.02
2018-08-17T01:35:07.506Z,19.05
2018-08-17T01:37:36.654Z,19.10
2018-08-17T01:40:06.231Z,19.07
2018-08-17T01:42:34.991Z,18.95
2018-08-17T01:45:03.851Z,18.91
2018-08-17T01:47:32.610Z,18.88
2018-08-17T01:50:01.295Z,19.00
2018-08-17T01:52:30.319Z,19.09
2018-08-17T01:54:58.999Z,19.08
2018-08-17T01:57:27.707Z,19.05
2018-08-17T01:59:56.479Z,19.07
2018-08-17T02:02:25.333Z,19.02
2018-08-17T02:04:54.020Z,18.99
2018-08-17T02:07:23.023Z,18.96
2018-08-17T02:09:51.843Z,19.03
2018-08-17T02:12:20.569Z,19.04
2018-08-17T02:14:49.552Z,19.03
2018-08-17T02:17:18.363Z,19.00
2018-08-17T02:19:47.030Z,19.03
2018-08-17T02:22:15.788Z,19.04
2018-08-17T02:24:44.603Z,19.06
2018-08-17T02:27:13.329Z,19.11
2018-08-17T02:29:42.074Z,19.15
2018-08-17T02:32:10.759Z,19.17
2018-08-17T02:34:39.467Z,19.13
2018-08-17T02:37:08.303Z,19.08
2018-08-17T02:39:37.078Z,19.08
2018-08-17T02:42:06.171Z,19.05
2018-08-17T02:44:35.292Z,18.94
2018-08-17T02:47:04.072Z,18.90
2018-08-17T02:49:32.957Z,18.85
2018-08-17T02:52:02.584Z,18.83
2018-08-17T02:54:31.199Z,18.77
2018-08-17T02:56:59.963Z,18.83
2018-08-17T02:59:29.079Z,18.83
2018-08-17T03:01:57.853Z,18.75
2018-08-17T03:04:27.411Z,18.75
2018-08-17T03:06:56.238Z,18.68
2018-08-17T03:09:25.011Z,18.66
2018-08-17T03:12:00.056Z,18.67
2018-08-17T03:14:28.883Z,18.73
2018-08-17T03:16:57.571Z,18.77
2018-08-17T03:19:26.630Z,18.79
2018-08-17T03:21:55.463Z,18.79
2018-08-17T03:24:24.223Z,18.69
2018-08-17T03:26:53.019Z,18.58
2018-08-17T03:29:21.740Z,18.58
2018-08-17T03:31:50.565Z,18.61
2018-08-17T03:34:19.600Z,18.67
2018-08-17T03:36:48.404Z,18.69
2018-08-17T03:39:17.245Z,18.70
2018-08-17T03:41:46.351Z,18.68
2018-08-17T03:44:15.002Z,18.74
2018-08-17T03:46:43.770Z,18.87
2018-08-17T03:49:12.696Z,19.00
2018-08-17T03:51:41.376Z,19.03
2018-08-17T03:54:10.064Z,19.04
2018-08-17T03:56:39.090Z,19.04
2018-08-17T03:59:08.127Z,19.02
2018-08-17T04:01:36.815Z,19.09
2018-08-17T04:04:06.080Z,19.06
2018-08-17T04:06:34.779Z,19.08
2018-08-17T04:09:05.470Z,19.13
2018-08-17T04:11:34.230Z,19.14
2018-08-17T04:14:02.960Z,19.21
2018-08-17T04:16:31.812Z,19.38
2018-08-17T04:19:01.427Z,19.47
2018-08-17T04:21:31.174Z,19.49
2018-08-17T04:24:00.011Z,19.42
2018-08-17T04:26:28.852Z,19.35
2018-08-17T04:28:57.728Z,19.36
2018-08-17T04:31:26.438Z,19.40
2018-08-17T04:33:55.772Z,19.49
2018-08-17T04:36:24.444Z,19.58
2018-08-17T04:38:53.247Z,19.64
2018-08-17T04:41:22.349Z,19.75
2018-08-17T04:43:52.405Z,19.74
2018-08-17T04:46:21.230Z,19.76
2018-08-17T04:48:50.339Z,19.78
2018-08-17T04:51:19.217Z,19.71
2018-08-17T04:53:47.896Z,19.73
2018-08-17T04:56:16.689Z,19.80
2018-08-17T04:58:45.378Z,19.81
2018-08-17T05:01:14.372Z,19.79
2018-08-17T05:03:43.480Z,19.81
2018-08-17T05:06:12.460Z,19.86
2018-08-17T05:08:41.256Z,19.89
2018-08-17T05:11:10.606Z,20.02
2018-08-17T05:13:39.443Z,20.08
2018-08-17T05:16:08.133Z,20.15
2018-08-17T05:18:37.750Z,20.21
2018-08-17T05:21:06.535Z,20.28
2018-08-17T05:23:35.250Z,20.45
2018-08-17T05:26:04.639Z,20.59
2018-08-17T05:28:33.254Z,20.61
2018-08-17T05:31:02.042Z,20.68
2018-08-17T05:33:31.430Z,20.78
2018-08-17T05:36:00.278Z,21.04
2018-08-17T05:38:28.981Z,21.25
2018-08-17T05:40:58.383Z,21.52
2018-08-17T05:43:27.162Z,22.27
2018-08-17T05:45:56.035Z,23.46
2018-08-17T05:48:25.292Z,25.05
2018-08-17T05:50:54.054Z,26.22
2018-08-17T05:53:22.828Z,27.00
2018-08-17T05:55:51.615Z,26.80
2018-08-17T05:58:20.463Z,27.13
2018-08-17T06:00:49.191Z,27.49
2018-08-17T06:03:18.230Z,27.61
2018-08-17T06:05:46.943Z,28.65
2018-08-17T06:08:15.786Z,29.41
2018-08-17T06:10:44.684Z,30.64
2018-08-17T06:13:13.394Z,30.92
2018-08-17T06:15:42.163Z,30.90
2018-08-17T06:18:11.528Z,30.51
2018-08-17T06:20:40.388Z,30.08
2018-08-17T06:23:09.220Z,29.36
2018-08-17T06:25:38.358Z,29.37
2018-08-17T06:28:07.369Z,29.18
2018-08-17T06:30:36.226Z,29.36
2018-08-17T06:33:05.207Z,29.60
2018-08-17T06:35:33.920Z,29.93
2018-08-17T06:38:02.908Z,30.58
2018-08-17T06:40:38.066Z,30.51
2018-08-17T06:43:06.929Z,30.40
2018-08-17T06:45:35.710Z,30.37
2018-08-17T06:48:04.512Z,30.46
2018-08-17T06:50:33.349Z,31.01
2018-08-17T06:53:02.197Z,32.35
2018-08-17T06:55:31.379Z,34.07
2018-08-17T06:58:00.208Z,34.87
2018-08-17T07:00:28.907Z,35.01
2018-08-17T07:02:57.975Z,33.70
2018-08-17T07:05:26.814Z,34.03
2018-08-17T07:07:55.576Z,33.36
2018-08-17T07:10:24.950Z,33.24
2018-08-17T07:12:53.845Z,33.42
2018-08-17T07:15:22.738Z,33.03
2018-08-17T07:17:52.103Z,32.40
2018-08-17T07:20:20.820Z,31.71
2018-08-17T07:22:49.522Z,31.06
2018-08-17T07:25:18.244Z,31.15
2018-08-17T07:27:47.054Z,32.04
2018-08-17T07:30:15.822Z,33.13
2018-08-17T07:32:44.895Z,34.08
2018-08-17T07:35:13.579Z,34.95
2018-08-17T07:37:42.213Z,35.16
2018-08-17T07:40:11.466Z,35.49
2018-08-17T07:42:40.343Z,35.85
2018-08-17T07:45:09.245Z,35.66
2018-08-17T07:47:38.446Z,35.56
2018-08-17T07:50:07.434Z,35.85
2018-08-17T07:52:36.210Z,35.88
2018-08-17T07:55:05.543Z,36.02
2018-08-17T07:57:34.208Z,36.41
2018-08-17T08:00:02.994Z,36.40
2018-08-17T08:02:32.114Z,36.84
2018-08-17T08:05:00.829Z,35.95
2018-08-17T08:07:29.671Z,35.58
2018-08-17T08:09:58.885Z,35.30
2018-08-17T08:12:27.738Z,33.57
2018-08-17T08:14:56.407Z,33.04
2018-08-17T08:17:25.463Z,32.79
2018-08-17T08:20:05.335Z,33.70
2018-08-17T08:22:34.618Z,34.58
2018-08-17T08:25:03.494Z,33.98
2018-08-17T08:27:32.336Z,34.44
2018-08-17T08:30:01.249Z,34.14
2018-08-17T08:32:30.104Z,33.63
2018-08-17T08:34:58.907Z,33.26
2018-08-17T08:37:28.071Z,33.59
2018-08-17T08:39:57.915Z,33.75
2018-08-17T08:42:26.763Z,31.55
2018-08-17T08:44:55.650Z,30.71
2018-08-17T08:47:24.785Z,31.68
2018-08-17T08:49:53.639Z,33.01
2018-08-17T08:52:22.330Z,33.67
2018-08-17T08:54:51.334Z,34.05
2018-08-17T08:57:20.214Z,34.24
2018-08-17T08:59:49.236Z,34.37
2018-08-17T09:02:18.222Z,33.63
2018-08-17T09:04:47.109Z,33.78
2018-08-17T09:07:15.927Z,33.39
2018-08-17T09:09:45.186Z,32.86
2018-08-17T09:12:14.003Z,32.63
2018-08-17T09:14:42.754Z,31.91
2018-08-17T09:17:11.883Z,31.68
2018-08-17T09:19:40.585Z,31.19
2018-08-17T09:22:09.230Z,31.46
2018-08-17T09:24:38.344Z,31.33
2018-08-17T09:27:07.417Z,31.29
2018-08-17T09:29:36.135Z,30.74
2018-08-17T09:32:05.510Z,31.25
2018-08-17T09:34:34.195Z,30.74
2018-08-17T09:37:02.923Z,30.37
2018-08-17T09:39:32.017Z,30.25
2018-08-17T09:42:00.827Z,29.84
2018-08-17T09:44:29.586Z,30.03
2018-08-17T09:46:58.352Z,30.54
2018-08-17T09:49:27.094Z,30.95
2018-08-17T09:51:55.787Z,30.60
2018-08-17T09:54:24.936Z,30.35
2018-08-17T09:56:53.646Z,29.88
2018-08-17T09:59:22.409Z,29.98
2018-08-17T10:01:56.644Z,30.44
2018-08-17T10:04:30.533Z,30.53
2018-08-17T10:07:04.858Z,30.39
2018-08-17T10:09:38.756Z,29.97
2018-08-17T10:12:08.321Z,29.58
2018-08-17T10:14:37.038Z,29.50
2018-08-17T10:17:05.719Z,29.54
2018-08-17T10:19:34.545Z,29.80
2018-08-17T10:22:03.333Z,29.54
2018-08-17T10:24:32.008Z,29.42
2018-08-17T10:27:00.723Z,29.46
2018-08-17T10:29:29.411Z,29.91
2018-08-17T10:31:58.172Z,29.95
2018-08-17T10:34:27.291Z,30.59
2018-08-17T10:36:56.127Z,30.31
2018-08-17T10:39:24.814Z,30.36
2018-08-17T10:41:54.181Z,30.47
2018-08-17T10:44:23.064Z,30.45
2018-08-17T10:46:51.781Z,31.09
2018-08-17T10:49:20.861Z,30.67
2018-08-17T10:51:49.724Z,30.11
2018-08-17T10:54:18.409Z,29.29
2018-08-17T10:56:47.049Z,28.79
2018-08-17T10:59:15.787Z,28.66
2018-08-17T11:01:45.478Z,28.36
2018-08-17T11:04:14.669Z,27.36
2018-08-17T11:06:43.417Z,26.58
2018-08-17T11:09:12.486Z,26.47
2018-08-17T11:11:41.645Z,26.48
2018-08-17T11:14:10.411Z,26.68
2018-08-17T11:16:39.096Z,26.82
2018-08-17T11:19:08.272Z,27.19
2018-08-17T11:21:37.110Z,27.28
2018-08-17T11:24:05.836Z,27.37
2018-08-17T11:26:34.955Z,27.40
2018-08-17T11:29:03.680Z,27.71
2018-08-17T11:31:32.444Z,27.80
2018-08-17T11:34:01.324Z,27.94
2018-08-17T11:36:30.019Z,28.03
2018-08-17T11:38:58.899Z,28.17
2018-08-17T11:41:27.944Z,28.13
2018-08-17T11:44:03.098Z,28.22
2018-08-17T11:46:33.039Z,28.48
2018-08-17T11:49:01.893Z,28.67
2018-08-17T11:51:30.710Z,28.71
2018-08-17T11:53:59.454Z,28.86
2018-08-17T11:56:28.128Z,28.78
2018-08-17T11:58:56.898Z,28.46
2018-08-17T12:01:28.852Z,28.63
2018-08-17T12:03:57.623Z,28.61
2018-08-17T12:06:26.643Z,28.60
2018-08-17T12:08:55.712Z,28.51
2018-08-17T12:11:24.474Z,28.64
2018-08-17T12:13:53.152Z,28.67
2018-08-17T12:16:22.299Z,28.85
2018-08-17T12:18:51.020Z,28.81
2018-08-17T12:21:19.722Z,28.90
2018-08-17T12:23:48.850Z,28.71
2018-08-17T12:26:17.474Z,28.46
2018-08-17T12:28:46.144Z,28.59
2018-08-17T12:31:15.240Z,28.71
2018-08-17T12:33:43.988Z,28.90
2018-08-17T12:36:12.758Z,29.44
2018-08-17T12:38:41.939Z,29.81
2018-08-17T12:41:10.602Z,29.76
2018-08-17T12:43:40.101Z,29.60
2018-08-17T12:46:09.219Z,29.85
2018-08-17T12:48:37.911Z,30.12
2018-08-17T12:51:07.906Z,30.32
2018-08-17T12:53:36.838Z,30.43
2018-08-17T12:56:05.696Z,30.59
2018-08-17T12:58:34.403Z,30.66
2018-08-17T13:01:03.698Z,30.56
2018-08-17T13:03:32.478Z,30.53
2018-08-17T13:06:01.306Z,30.24
2018-08-17T13:08:30.460Z,30.25
2018-08-17T13:10:59.744Z,30.33
2018-08-17T13:13:28.417Z,30.30
2018-08-17T13:16:02.666Z,28.78
2018-08-17T13:18:34.636Z,27.57
2018-08-17T13:21:03.560Z,26.90
2018-08-17T13:23:32.351Z,26.85
2018-08-17T13:26:01.201Z,26.68
2018-08-17T13:28:30.329Z,26.46
2018-08-17T13:30:59.091Z,26.20
2018-08-17T13:33:27.880Z,25.96
2018-08-17T13:35:56.669Z,25.64
2018-08-17T13:38:25.564Z,25.29
2018-08-17T13:40:54.354Z,24.81
2018-08-17T13:43:23.656Z,24.75
2018-08-17T13:45:52.443Z,24.84
2018-08-17T13:48:21.337Z,24.65
2018-08-17T13:50:50.532Z,24.86
2018-08-17T13:53:19.303Z,25.03
2018-08-17T13:55:47.971Z,25.04
2018-08-17T13:58:17.227Z,24.93
2018-08-17T14:00:46.007Z,24.98
2018-08-17T14:03:14.888Z,25.38
2018-08-17T14:05:43.808Z,25.75
2018-08-17T14:08:12.540Z,25.83
2018-08-17T14:10:41.365Z,25.48
2018-08-17T14:13:10.474Z,25.85
2018-08-17T14:15:39.433Z,26.14
2018-08-17T14:18:08.199Z,26.24
2018-08-17T14:20:37.564Z,26.43
2018-08-17T14:23:06.342Z,26.62
2018-08-17T14:25:35.116Z,26.76
2018-08-17T14:28:04.126Z,26.70
2018-08-17T14:30:32.755Z,26.65
2018-08-17T14:33:01.704Z,26.75
2018-08-17T14:35:30.465Z,26.82
2018-08-17T14:37:59.239Z,26.84
2018-08-17T14:40:28.013Z,26.90
2018-08-17T14:42:56.839Z,26.56
2018-08-17T14:45:25.526Z,26.53
2018-08-17T14:47:54.331Z,26.53
2018-08-17T14:50:23.554Z,26.27
2018-08-17T14:52:52.530Z,26.02
2018-08-17T14:55:21.424Z,25.59
2018-08-17T14:57:50.418Z,25.53
2018-08-17T15:00:19.268Z,25.15
2018-08-17T15:02:48.008Z,24.99
2018-08-17T15:05:17.196Z,24.97
2018-08-17T15:07:45.897Z,24.95
2018-08-17T15:10:15.279Z,24.92
2018-08-17T15:12:44.438Z,24.92
2018-08-17T15:15:13.778Z,24.93
2018-08-17T15:17:42.534Z,24.81
2018-08-17T15:20:14.251Z,24.76
2018-08-17T15:22:43.114Z,24.82
2018-08-17T15:25:11.911Z,24.76
2018-08-17T15:27:40.694Z,24.73
2018-08-17T15:30:10.896Z,24.70
2018-08-17T15:32:40.277Z,24.60
2018-08-17T15:35:09.870Z,24.57
2018-08-17T15:37:39.182Z,24.52
2018-08-17T15:40:10.602Z,24.48
2018-08-17T15:42:39.559Z,24.40
2018-08-17T15:45:08.811Z,24.34
2018-08-17T15:47:38.295Z,24.15
2018-08-17T15:50:14.442Z,24.31
2018-08-17T15:52:43.867Z,24.47
2018-08-17T15:55:12.848Z,24.63
2018-08-17T15:57:41.819Z,24.61
2018-08-17T16:00:16.927Z,24.81
2018-08-17T16:02:45.905Z,24.97
2018-08-17T16:05:14.768Z,25.03
2018-08-17T16:07:43.882Z,25.02
2018-08-17T16:10:14.448Z,25.12
2018-08-17T16:12:43.190Z,24.89
2018-08-17T16:15:12.398Z,24.87
2018-08-17T16:17:41.262Z,24.60
2018-08-17T16:20:11.723Z,24.63
2018-08-17T16:22:41.526Z,24.76
2018-08-17T16:25:11.247Z,24.67
2018-08-17T16:27:40.470Z,24.68
2018-08-17T16:30:11.307Z,24.67
2018-08-17T16:32:40.339Z,24.74
2018-08-17T16:35:09.375Z,24.75
2018-08-17T16:37:46.354Z,24.78
2018-08-17T16:40:15.228Z,24.81
2018-08-17T16:42:43.912Z,24.87
2018-08-17T16:45:13.122Z,24.94
2018-08-17T16:47:41.853Z,24.96
2018-08-17T16:50:10.694Z,24.96
2018-08-17T16:52:39.829Z,24.94
2018-08-17T16:55:09.714Z,24.86
2018-08-17T16:57:39.018Z,24.96
2018-08-17T17:00:09.759Z,24.92
2018-08-17T17:02:38.638Z,24.79
2018-08-17T17:05:08.039Z,24.82
2018-08-17T17:07:37.155Z,24.64
2018-08-17T17:10:07.982Z,24.52
2018-08-17T17:12:36.819Z,24.49
2018-08-17T17:15:14.572Z,24.42
2018-08-17T17:17:45.395Z,24.40
2018-08-17T17:20:14.089Z,24.33
2018-08-17T17:22:43.170Z,24.24
2018-08-17T17:25:17.010Z,24.12
2018-08-17T17:27:46.318Z,24.08
2018-08-17T17:30:17.141Z,24.04
2018-08-17T17:32:45.931Z,23.89
2018-08-17T17:35:14.782Z,23.79
2018-08-17T17:37:43.612Z,23.71
2018-08-17T17:40:12.393Z,23.64
2018-08-17T17:42:41.434Z,23.55
2018-08-17T17:45:10.132Z,23.51
2018-08-17T17:47:38.836Z,23.51
2018-08-17T17:50:07.965Z,23.43
2018-08-17T17:52:36.634Z,23.41
2018-08-17T17:55:05.450Z,23.37
2018-08-17T17:57:34.555Z,23.30
2018-08-17T18:00:03.427Z,23.24
2018-08-17T18:02:32.195Z,23.35
2018-08-17T18:05:00.886Z,23.25
2018-08-17T18:07:34.391Z,23.18
2018-08-17T18:10:03.760Z,23.14
2018-08-17T18:12:32.602Z,23.07
2018-08-17T18:15:01.351Z,23.03
2018-08-17T18:17:30.502Z,22.99
2018-08-17T18:19:59.284Z,22.98
2018-08-17T18:22:31.494Z,23.05
2018-08-17T18:25:05.272Z,22.95
2018-08-17T18:27:34.043Z,22.86
2018-08-17T18:30:02.922Z,22.88
2018-08-17T18:32:31.720Z,23.00
2018-08-17T18:35:00.871Z,23.01
2018-08-17T18:37:29.609Z,22.97
2018-08-17T18:39:58.285Z,22.96
2018-08-17T18:42:27.035Z,22.95
2018-08-17T18:44:55.879Z,22.88
2018-08-17T18:47:24.720Z,22.85
2018-08-17T18:49:53.878Z,22.84
2018-08-17T18:52:22.649Z,22.85
2018-08-17T18:54:51.555Z,22.88
2018-08-17T18:57:20.443Z,22.72
2018-08-17T18:59:49.220Z,22.62
2018-08-17T19:02:17.924Z,22.68
2018-08-17T19:04:47.127Z,22.66
2018-08-17T19:07:16.794Z,22.64
2018-08-17T19:09:46.020Z,22.53
2018-08-17T19:12:15.139Z,22.55
2018-08-17T19:14:49.827Z,22.56
2018-08-17T19:17:23.974Z,22.48
2018-08-17T19:19:53.511Z,22.31
2018-08-17T19:22:22.569Z,22.28
2018-08-17T19:24:53.195Z,22.16
2018-08-17T19:27:27.808Z,22.11
2018-08-17T19:29:57.853Z,21.98
2018-08-17T19:32:26.860Z,21.81
2018-08-17T19:34:55.992Z,21.80
2018-08-17T19:37:25.085Z,21.70
2018-08-17T19:39:54.214Z,21.56
2018-08-17T19:42:23.095Z,21.50
2018-08-17T19:44:52.141Z,21.40
2018-08-17T19:47:21.099Z,21.32
2018-08-17T19:49:50.012Z,21.27
2018-08-17T19:52:19.222Z,21.22
2018-08-17T19:54:48.394Z,21.21
2018-08-17T19:57:17.280Z,21.14
2018-08-17T19:59:46.606Z,21.11
2018-08-17T20:02:15.404Z,21.04
2018-08-17T20:04:44.223Z,21.00
2018-08-17T20:07:13.806Z,21.02
2018-08-17T20:12:10.802Z,20.89
2018-08-17T20:14:39.887Z,20.83
2018-08-17T20:17:08.919Z,20.77
2018-08-17T20:19:52.191Z,20.63
2018-08-17T20:22:23.187Z,20.59
2018-08-17T20:24:51.979Z,20.53
2018-08-17T20:27:21.610Z,20.57
2018-08-17T20:29:50.478Z,20.47
2018-08-17T20:32:19.499Z,20.40
2018-08-17T20:34:49.779Z,20.36
2018-08-17T20:37:19.239Z,20.29
2018-08-17T20:39:48.267Z,20.26
2018-08-17T20:42:17.096Z,20.29
2018-08-17T20:44:46.295Z,20.25
2018-08-17T20:47:16.416Z,20.19
2018-08-17T20:49:45.679Z,20.20
2018-08-17T20:52:14.615Z,20.17
2018-08-17T20:54:44.107Z,20.27
2018-08-17T20:57:13.602Z,20.24
2018-08-17T20:59:42.780Z,20.25
2018-08-17T21:02:13.687Z,20.17
2018-08-17T21:04:43.587Z,20.15
2018-08-17T21:07:12.881Z,20.13
2018-08-17T21:09:42.159Z,20.17
2018-08-17T21:12:11.418Z,20.31
2018-08-17T21:14:41.706Z,20.13
2018-08-17T21:17:10.501Z,19.94
2018-08-17T21:19:40.479Z,19.95
2018-08-17T21:22:10.938Z,19.90
2018-08-17T21:24:40.146Z,19.81
2018-08-17T21:27:09.275Z,19.86
2018-08-17T21:29:38.249Z,19.88
2018-08-17T21:32:07.229Z,19.86
2018-08-17T21:34:36.552Z,19.73
2018-08-17T21:37:05.730Z,19.77
2018-08-17T21:39:34.367Z,19.81
2018-08-17T21:42:03.179Z,19.79
2018-08-17T21:44:32.198Z,19.82
2018-08-17T21:47:04.702Z,19.90
2018-08-17T21:49:34.426Z,19.93
2018-08-17T21:52:06.734Z,20.01
2018-08-17T21:54:35.897Z,19.90
2018-08-17T21:57:05.294Z,19.75
2018-08-17T21:59:38.310Z,19.73
2018-08-17T22:02:11.387Z,19.72
2018-08-17T22:04:40.380Z,19.79
2018-08-17T22:07:13.289Z,19.81
2018-08-17T22:09:43.506Z,19.77
2018-08-17T22:12:13.399Z,19.64
2018-08-17T22:14:42.402Z,19.51
2018-08-17T22:17:22.243Z,19.38
2018-08-17T22:19:50.979Z,19.32
2018-08-17T22:22:21.435Z,19.41
2018-08-17T22:24:51.874Z,19.48
2018-08-17T22:27:21.494Z,19.55
2018-08-17T22:29:51.834Z,19.61
2018-08-17T22:32:21.115Z,19.48
2018-08-17T22:34:50.931Z,19.50
2018-08-17T22:37:20.043Z,19.54
2018-08-17T22:39:49.803Z,19.47
2018-08-17T22:42:19.927Z,19.40
2018-08-17T22:44:49.458Z,19.55
2018-08-17T22:47:21.510Z,19.62
2018-08-17T22:49:51.502Z,19.56
2018-08-17T22:52:20.694Z,19.53
2018-08-17T22:54:54.854Z,19.42
2018-08-17T22:57:24.002Z,19.44
2018-08-17T23:00:19.724Z,19.34
2018-08-17T23:02:49.652Z,19.29
2018-08-17T23:05:21.589Z,19.35
2018-08-17T23:07:50.642Z,19.35
2018-08-17T23:10:22.536Z,19.45
2018-08-17T23:12:52.560Z,19.50
2018-08-17T23:15:22.024Z,19.28
2018-08-17T23:17:56.284Z,19.21
2018-08-17T23:20:30.284Z,19.18
2018-08-17T23:23:00.582Z,19.13
2018-08-17T23:25:29.781Z,19.13
2018-08-17T23:27:58.773Z,19.14
2018-08-17T23:30:27.666Z,19.11
2018-08-17T23:32:56.680Z,19.05
2018-08-17T23:35:25.402Z,19.00
2018-08-17T23:37:54.388Z,18.97
2018-08-17T23:40:23.627Z,18.99
2018-08-17T23:42:52.617Z,19.11
2018-08-17T23:45:22.284Z,19.09
2018-08-17T23:47:51.129Z,19.13
2018-08-17T23:50:20.029Z,19.12
2018-08-17T23:52:48.869Z,19.11
2018-08-17T23:55:18.776Z,19.04
2018-08-17T23:57:48.509Z,18.98
